createdAt,value
2019-01-26T00:00:54.312Z,17.96
2019-01-26T00:02:03.403Z,17.99
2019-01-26T00:03:12.219Z,18.02
2019-01-26T00:04:21.054Z,17.93
2019-01-26T00:05:30.186Z,17.95
2019-01-26T00:06:39.291Z,17.99
2019-01-26T00:07:48.382Z,17.95
2019-01-26T00:08:57.223Z,17.96
2019-01-26T00:10:06.031Z,17.93
2019-01-26T00:11:15.180Z,17.93
2019-01-26T00:12:24.014Z,17.92
2019-01-26T00:13:33.123Z,17.92
2019-01-26T00:14:42.203Z,17.93
2019-01-26T00:15:51.143Z,17.97
2019-01-26T00:17:00.321Z,17.93
2019-01-26T00:18:09.144Z,17.99
2019-01-26T00:19:18.493Z,18.03
2019-01-26T00:20:27.856Z,17.96
2019-01-26T00:21:41.074Z,17.96
2019-01-26T00:22:50.158Z,17.99
2019-01-26T00:23:59.751Z,17.89
2019-01-26T00:25:08.842Z,17.9
2019-01-26T00:26:17.661Z,17.92
2019-01-26T00:27:26.497Z,17.82
2019-01-26T00:28:35.569Z,17.87
2019-01-26T00:29:44.906Z,17.97
2019-01-26T00:30:54.244Z,17.95
2019-01-26T00:32:03.596Z,17.97
2019-01-26T00:33:13.040Z,17.97
2019-01-26T00:34:21.992Z,18
2019-01-26T00:35:30.805Z,18
2019-01-26T00:36:39.908Z,18.03
2019-01-26T00:37:48.714Z,17.96
2019-01-26T00:38:57.530Z,17.93
2019-01-26T00:40:06.678Z,17.92
2019-01-26T00:41:15.759Z,17.87
2019-01-26T00:42:24.565Z,17.9
2019-01-26T00:43:33.393Z,18.05
2019-01-26T00:44:42.482Z,17.95
2019-01-26T00:45:51.360Z,17.92
2019-01-26T00:47:00.445Z,17.95
2019-01-26T00:48:09.294Z,17.99
2019-01-26T00:49:18.404Z,17.87
2019-01-26T00:50:27.275Z,17.99
2019-01-26T00:51:36.170Z,17.84
2019-01-26T00:52:44.974Z,18.03
2019-01-26T00:53:54.335Z,17.97
2019-01-26T00:55:03.415Z,17.99
2019-01-26T00:56:12.231Z,17.87
2019-01-26T00:57:21.389Z,17.92
2019-01-26T00:58:30.741Z,17.93
2019-01-26T00:59:39.840Z,17.99
2019-01-26T01:00:48.663Z,17.9
2019-01-26T01:01:57.482Z,17.89
2019-01-26T01:03:06.298Z,17.87
2019-01-26T01:04:15.134Z,17.87
2019-01-26T01:05:23.949Z,17.87
2019-01-26T01:06:32.766Z,17.9
2019-01-26T01:07:41.661Z,17.89
2019-01-26T01:08:50.912Z,17.87
2019-01-26T01:10:00.572Z,17.95
2019-01-26T01:11:09.396Z,17.87
2019-01-26T01:12:18.464Z,17.89
2019-01-26T01:13:27.790Z,17.93
2019-01-26T01:14:36.642Z,17.84
2019-01-26T01:15:45.476Z,17.82
2019-01-26T01:16:54.290Z,17.78
2019-01-26T01:18:04.168Z,17.78
2019-01-26T01:19:12.985Z,17.99
2019-01-26T01:20:22.072Z,17.87
2019-01-26T01:21:31.699Z,17.86
2019-01-26T01:22:40.799Z,17.96
2019-01-26T01:23:50.008Z,17.81
2019-01-26T01:24:58.823Z,17.86
2019-01-26T01:26:08.038Z,17.82
2019-01-26T01:27:17.120Z,17.92
2019-01-26T01:28:25.971Z,17.86
2019-01-26T01:29:35.325Z,17.93
2019-01-26T01:30:44.386Z,17.77
2019-01-26T01:31:53.481Z,17.82
2019-01-26T01:33:02.565Z,17.81
2019-01-26T01:34:11.650Z,17.87
2019-01-26T01:35:20.736Z,17.78
2019-01-26T01:36:29.854Z,17.89
2019-01-26T01:37:39.284Z,17.92
2019-01-26T01:38:48.107Z,17.81
2019-01-26T01:39:56.945Z,17.95
2019-01-26T01:41:05.754Z,17.93
2019-01-26T01:42:14.850Z,17.87
2019-01-26T01:43:24.033Z,17.87
2019-01-26T01:44:32.853Z,17.86
2019-01-26T01:45:41.939Z,17.81
2019-01-26T01:46:51.287Z,17.87
2019-01-26T01:48:00.642Z,17.84
2019-01-26T01:49:09.751Z,17.86
2019-01-26T01:50:18.845Z,17.78
2019-01-26T01:51:27.928Z,17.84
2019-01-26T01:52:36.901Z,17.92
2019-01-26T01:53:46.508Z,17.82
2019-01-26T01:54:55.852Z,17.86
2019-01-26T01:56:04.739Z,17.93
2019-01-26T01:57:13.550Z,17.9
2019-01-26T01:58:22.375Z,17.87
2019-01-26T01:59:31.199Z,17.84
2019-01-26T02:00:40.582Z,17.79
2019-01-26T02:01:49.665Z,17.87
2019-01-26T02:02:58.476Z,17.92
2019-01-26T02:04:07.331Z,17.87
2019-01-26T02:05:16.674Z,17.9
2019-01-26T02:06:25.752Z,17.87
2019-01-26T02:07:34.860Z,17.9
2019-01-26T02:08:43.946Z,17.84
2019-01-26T02:09:53.035Z,17.81
2019-01-26T02:11:01.856Z,17.84
2019-01-26T02:12:10.678Z,17.87
2019-01-26T02:13:20.007Z,17.89
2019-01-26T02:14:29.097Z,17.86
2019-01-26T02:15:38.176Z,17.84
2019-01-26T02:16:52.654Z,17.87
2019-01-26T02:18:01.764Z,17.87
2019-01-26T02:19:10.588Z,17.86
2019-01-26T02:20:19.933Z,17.84
2019-01-26T02:21:29.526Z,17.9
2019-01-26T02:22:38.631Z,17.92
2019-01-26T02:23:47.699Z,17.86
2019-01-26T02:24:56.521Z,17.79
2019-01-26T02:26:05.527Z,17.82
2019-01-26T02:27:14.415Z,17.84
2019-01-26T02:28:23.243Z,17.79
2019-01-26T02:29:32.082Z,17.81
2019-01-26T02:30:40.912Z,17.84
2019-01-26T02:31:50.262Z,17.87
2019-01-26T02:32:59.346Z,17.82
2019-01-26T02:34:08.186Z,17.84
2019-01-26T02:35:17.513Z,17.87
2019-01-26T02:36:26.610Z,17.92
2019-01-26T02:37:35.729Z,17.81
2019-01-26T02:38:44.807Z,17.82
2019-01-26T02:39:53.651Z,17.86
2019-01-26T02:41:02.564Z,17.81
2019-01-26T02:42:11.377Z,17.84
2019-01-26T02:43:20.186Z,17.86
2019-01-26T02:44:29.280Z,17.81
2019-01-26T02:45:38.090Z,17.9
2019-01-26T02:46:47.302Z,17.75
2019-01-26T02:48:02.529Z,17.75
2019-01-26T02:49:12.160Z,17.75
2019-01-26T02:50:20.986Z,17.79
2019-01-26T02:51:29.825Z,17.75
2019-01-26T02:52:39.231Z,17.82
2019-01-26T02:53:48.887Z,17.86
2019-01-26T02:54:57.984Z,17.86
2019-01-26T02:56:07.082Z,17.86
2019-01-26T02:57:16.151Z,17.74
2019-01-26T02:58:25.064Z,17.82
2019-01-26T02:59:33.892Z,17.7
2019-01-26T03:00:42.690Z,17.7
2019-01-26T03:01:51.791Z,17.71
2019-01-26T03:03:00.615Z,17.72
2019-01-26T03:04:09.814Z,17.72
2019-01-26T03:05:19.165Z,17.72
2019-01-26T03:06:28.277Z,17.71
2019-01-26T03:07:37.636Z,17.75
2019-01-26T03:08:46.496Z,17.7
2019-01-26T03:09:55.392Z,17.77
2019-01-26T03:11:04.247Z,17.71
2019-01-26T03:12:13.096Z,17.72
2019-01-26T03:13:22.479Z,17.68
2019-01-26T03:14:31.810Z,17.7
2019-01-26T03:15:41.586Z,17.75
2019-01-26T03:16:50.798Z,17.77
2019-01-26T03:17:59.645Z,17.74
2019-01-26T03:19:08.710Z,17.72
2019-01-26T03:20:17.805Z,17.75
2019-01-26T03:21:26.966Z,17.74
2019-01-26T03:22:36.034Z,17.77
2019-01-26T03:23:45.374Z,17.75
2019-01-26T03:24:54.509Z,17.75
2019-01-26T03:26:03.346Z,17.77
2019-01-26T03:27:12.739Z,17.77
2019-01-26T03:28:21.585Z,17.59
2019-01-26T03:29:30.680Z,17.71
2019-01-26T03:30:40.050Z,17.63
2019-01-26T03:31:49.193Z,17.74
2019-01-26T03:32:58.703Z,17.78
2019-01-26T03:34:07.562Z,17.71
2019-01-26T03:35:16.912Z,17.68
2019-01-26T03:36:25.733Z,17.68
2019-01-26T03:37:34.559Z,17.59
2019-01-26T03:38:43.688Z,17.58
2019-01-26T03:39:52.504Z,17.64
2019-01-26T03:41:01.325Z,17.62
2019-01-26T03:42:10.407Z,17.64
2019-01-26T03:43:19.232Z,17.68
2019-01-26T03:44:28.372Z,17.62
2019-01-26T03:45:37.207Z,17.63
2019-01-26T03:46:46.030Z,17.54
2019-01-26T03:47:55.385Z,17.59
2019-01-26T03:49:04.725Z,17.54
2019-01-26T03:50:13.831Z,17.64
2019-01-26T03:51:22.965Z,17.62
2019-01-26T03:52:32.318Z,17.62
2019-01-26T03:53:41.143Z,17.59
2019-01-26T03:54:49.963Z,17.62
2019-01-26T03:55:59.154Z,17.56
2019-01-26T03:57:08.258Z,17.62
2019-01-26T03:58:17.606Z,17.58
2019-01-26T03:59:26.951Z,17.58
2019-01-26T04:00:36.062Z,17.64
2019-01-26T04:01:45.219Z,17.64
2019-01-26T04:02:55.071Z,17.66
2019-01-26T04:04:04.180Z,17.55
2019-01-26T04:05:13.258Z,17.58
2019-01-26T04:06:22.068Z,17.55
2019-01-26T04:07:31.458Z,17.51
2019-01-26T04:08:40.571Z,17.52
2019-01-26T04:09:49.380Z,17.52
2019-01-26T04:10:58.533Z,17.54
2019-01-26T04:12:07.640Z,17.59
2019-01-26T04:13:16.523Z,17.51
2019-01-26T04:14:25.589Z,17.54
2019-01-26T04:15:34.957Z,17.51
2019-01-26T04:16:44.544Z,17.56
2019-01-26T04:17:53.635Z,17.54
2019-01-26T04:19:02.786Z,17.56
2019-01-26T04:20:11.601Z,17.51
2019-01-26T04:21:20.442Z,17.55
2019-01-26T04:22:29.265Z,17.52
2019-01-26T04:23:38.402Z,17.55
2019-01-26T04:24:47.352Z,17.52
2019-01-26T04:25:56.751Z,17.56
2019-01-26T04:27:05.866Z,17.54
2019-01-26T04:28:15.247Z,17.54
2019-01-26T04:29:24.068Z,17.48
2019-01-26T04:30:33.265Z,17.51
2019-01-26T04:31:42.096Z,17.38
2019-01-26T04:32:51.468Z,17.48
2019-01-26T04:34:00.280Z,17.48
2019-01-26T04:35:09.356Z,17.46
2019-01-26T04:36:18.535Z,17.43
2019-01-26T04:37:27.665Z,17.41
2019-01-26T04:38:37.070Z,17.51
2019-01-26T04:39:45.885Z,17.48
2019-01-26T04:40:54.704Z,17.46
2019-01-26T04:42:03.837Z,17.44
2019-01-26T04:43:12.920Z,17.49
2019-01-26T04:44:22.284Z,17.46
2019-01-26T04:45:31.364Z,17.44
2019-01-26T04:46:40.195Z,17.44
2019-01-26T04:47:49.123Z,17.48
2019-01-26T04:48:58.230Z,17.43
2019-01-26T04:50:07.598Z,17.44
2019-01-26T04:51:16.693Z,17.4
2019-01-26T04:52:25.516Z,17.49
2019-01-26T04:53:34.431Z,17.44
2019-01-26T04:54:43.526Z,17.4
2019-01-26T04:55:52.613Z,17.44
2019-01-26T04:57:01.449Z,17.4
2019-01-26T04:58:10.572Z,17.44
2019-01-26T04:59:19.969Z,17.46
2019-01-26T05:00:28.905Z,17.41
2019-01-26T05:01:37.992Z,17.49
2019-01-26T05:02:46.831Z,17.46
2019-01-26T05:03:55.650Z,17.41
2019-01-26T05:05:04.761Z,17.4
2019-01-26T05:06:14.110Z,17.44
2019-01-26T05:07:23.230Z,17.4
2019-01-26T05:08:32.321Z,17.38
2019-01-26T05:09:41.143Z,17.43
2019-01-26T05:10:50.318Z,17.43
2019-01-26T05:11:59.383Z,17.37
2019-01-26T05:13:08.239Z,17.37
2019-01-26T05:14:17.316Z,17.36
2019-01-26T05:15:26.146Z,17.34
2019-01-26T05:16:35.020Z,17.37
2019-01-26T05:17:44.175Z,17.37
2019-01-26T05:18:53.023Z,17.43
2019-01-26T05:20:02.095Z,17.41
2019-01-26T05:21:10.937Z,17.37
2019-01-26T05:22:19.791Z,17.36
2019-01-26T05:23:29.411Z,17.38
2019-01-26T05:24:38.218Z,17.36
2019-01-26T05:25:47.051Z,17.33
2019-01-26T05:26:56.142Z,17.37
2019-01-26T05:28:05.340Z,17.34
2019-01-26T05:29:14.448Z,17.41
2019-01-26T05:30:23.536Z,17.34
2019-01-26T05:31:32.625Z,17.41
2019-01-26T05:32:41.701Z,17.3
2019-01-26T05:33:50.862Z,17.28
2019-01-26T05:34:59.664Z,17.34
2019-01-26T05:36:08.483Z,17.31
2019-01-26T05:37:17.836Z,17.36
2019-01-26T05:38:26.901Z,17.3
2019-01-26T05:39:35.775Z,17.26
2019-01-26T05:40:44.587Z,17.3
2019-01-26T05:41:54.191Z,17.34
2019-01-26T05:43:03.269Z,17.26
2019-01-26T05:44:12.074Z,17.33
2019-01-26T05:45:20.874Z,17.33
2019-01-26T05:46:30.213Z,17.3
2019-01-26T05:47:39.008Z,17.31
2019-01-26T05:48:55.747Z,17.33
2019-01-26T05:50:05.143Z,17.31
2019-01-26T05:51:14.034Z,17.3
2019-01-26T05:52:23.109Z,17.31
2019-01-26T05:53:31.932Z,17.25
2019-01-26T05:54:41.004Z,17.33
2019-01-26T05:55:49.809Z,17.23
2019-01-26T05:56:58.974Z,17.3
2019-01-26T05:58:07.807Z,17.26
2019-01-26T05:59:16.918Z,17.23
2019-01-26T06:00:25.747Z,17.31
2019-01-26T06:01:34.977Z,17.3
2019-01-26T06:02:43.900Z,17.31
2019-01-26T06:03:52.710Z,17.26
2019-01-26T06:05:01.520Z,17.3
2019-01-26T06:06:10.355Z,17.21
2019-01-26T06:07:19.411Z,17.3
2019-01-26T06:08:28.499Z,17.26
2019-01-26T06:09:38.717Z,17.3
2019-01-26T06:10:48.064Z,17.26
2019-01-26T06:11:57.417Z,17.3
2019-01-26T06:13:06.772Z,17.25
2019-01-26T06:14:15.618Z,17.25
2019-01-26T06:15:24.981Z,17.23
2019-01-26T06:16:33.817Z,17.25
2019-01-26T06:17:42.647Z,17.21
2019-01-26T06:18:52.042Z,17.25
2019-01-26T06:20:00.944Z,17.28
2019-01-26T06:21:09.756Z,17.23
2019-01-26T06:22:18.578Z,17.23
2019-01-26T06:23:27.941Z,17.3
2019-01-26T06:24:36.737Z,17.22
2019-01-26T06:25:45.662Z,17.25
2019-01-26T06:26:55.041Z,17.28
2019-01-26T06:28:03.864Z,17.3
2019-01-26T06:29:13.232Z,17.25
2019-01-26T06:30:22.322Z,17.3
2019-01-26T06:31:31.144Z,17.28
2019-01-26T06:32:40.212Z,17.21
2019-01-26T06:33:49.329Z,17.06
2019-01-26T06:34:58.163Z,17.01
2019-01-26T06:36:07.234Z,16.93
2019-01-26T06:37:16.449Z,17.01
2019-01-26T06:38:25.523Z,16.94
2019-01-26T06:39:34.844Z,16.93
2019-01-26T06:40:43.922Z,16.83
2019-01-26T06:41:52.976Z,16.86
2019-01-26T06:43:01.943Z,16.73
2019-01-26T06:44:10.751Z,16.81
2019-01-26T06:45:20.153Z,16.76
2019-01-26T06:46:29.511Z,16.75
2019-01-26T06:47:39.542Z,16.81
2019-01-26T06:48:48.449Z,16.81
2019-01-26T06:49:57.540Z,16.86
2019-01-26T06:51:06.629Z,16.91
2019-01-26T06:52:15.718Z,16.96
2019-01-26T06:53:24.800Z,16.98
2019-01-26T06:54:33.981Z,17.03
2019-01-26T06:55:42.837Z,17
2019-01-26T06:56:51.654Z,17.11
2019-01-26T06:58:00.488Z,17.07
2019-01-26T06:59:09.551Z,17.11
2019-01-26T07:00:19.031Z,17.11
2019-01-26T07:01:27.850Z,17.11
2019-01-26T07:02:36.952Z,17.08
2019-01-26T07:03:46.221Z,17.06
2019-01-26T07:04:55.319Z,17.04
2019-01-26T07:06:04.218Z,17.14
2019-01-26T07:07:13.307Z,17.21
2019-01-26T07:08:22.647Z,17.16
2019-01-26T07:09:31.453Z,17.19
2019-01-26T07:10:40.522Z,17.28
2019-01-26T07:11:49.712Z,17.22
2019-01-26T07:12:58.811Z,17.28
2019-01-26T07:14:07.640Z,17.25
2019-01-26T07:15:16.738Z,17.25
2019-01-26T07:16:25.570Z,17.28
2019-01-26T07:17:34.465Z,17.33
2019-01-26T07:18:43.275Z,17.34
2019-01-26T07:19:52.095Z,17.31
2019-01-26T07:21:00.917Z,17.26
2019-01-26T07:22:10.020Z,17.36
2019-01-26T07:23:18.959Z,17.33
2019-01-26T07:24:28.046Z,17.33
2019-01-26T07:25:36.883Z,17.33
2019-01-26T07:26:45.701Z,17.38
2019-01-26T07:27:54.775Z,17.34
2019-01-26T07:29:03.680Z,17.36
2019-01-26T07:30:13.340Z,17.37
2019-01-26T07:31:22.146Z,17.34
2019-01-26T07:32:31.763Z,17.38
2019-01-26T07:33:41.418Z,17.46
2019-01-26T07:34:50.492Z,17.49
2019-01-26T07:35:59.336Z,17.49
2019-01-26T07:37:08.161Z,17.49
2019-01-26T07:38:18.236Z,17.36
2019-01-26T07:39:27.315Z,17.4
2019-01-26T07:40:36.767Z,17.3
2019-01-26T07:41:45.600Z,17.34
2019-01-26T07:42:54.957Z,17.4
2019-01-26T07:44:03.765Z,17.36
2019-01-26T07:45:12.614Z,17.36
2019-01-26T07:46:21.486Z,17.36
2019-01-26T07:47:30.582Z,17.41
2019-01-26T07:48:39.445Z,17.43
2019-01-26T07:49:49.084Z,17.41
2019-01-26T07:50:58.186Z,17.49
2019-01-26T07:52:07.095Z,17.43
2019-01-26T07:53:16.479Z,17.44
2019-01-26T07:54:25.309Z,17.44
2019-01-26T07:55:34.153Z,17.41
2019-01-26T07:56:42.962Z,17.48
2019-01-26T07:57:52.071Z,17.54
2019-01-26T07:59:01.716Z,17.41
2019-01-26T08:00:11.041Z,17.49
2019-01-26T08:01:20.142Z,17.41
2019-01-26T08:02:29.222Z,17.51
2019-01-26T08:03:38.420Z,17.52
2019-01-26T08:04:47.513Z,17.54
2019-01-26T08:05:56.313Z,17.55
2019-01-26T08:07:05.142Z,17.55
2019-01-26T08:08:13.949Z,17.55
2019-01-26T08:09:23.031Z,17.55
2019-01-26T08:10:32.107Z,17.52
2019-01-26T08:11:42.449Z,17.54
2019-01-26T08:12:51.629Z,17.54
2019-01-26T08:14:00.456Z,17.54
2019-01-26T08:15:09.886Z,17.54
2019-01-26T08:16:18.967Z,17.54
2019-01-26T08:17:28.596Z,17.52
2019-01-26T08:18:37.427Z,17.58
2019-01-26T08:19:46.229Z,17.52
2019-01-26T08:20:55.692Z,17.55
2019-01-26T08:22:04.531Z,17.62
2019-01-26T08:23:13.355Z,17.59
2019-01-26T08:24:22.448Z,17.58
2019-01-26T08:25:31.267Z,17.56
2019-01-26T08:26:40.708Z,17.58
2019-01-26T08:27:50.046Z,17.63
2019-01-26T08:28:59.407Z,17.59
2019-01-26T08:30:09.013Z,17.66
2019-01-26T08:31:17.826Z,17.59
2019-01-26T08:32:27.484Z,17.54
2019-01-26T08:33:36.547Z,17.55
2019-01-26T08:34:45.912Z,17.62
2019-01-26T08:35:54.995Z,17.62
2019-01-26T08:37:04.343Z,17.56
2019-01-26T08:38:13.442Z,17.55
2019-01-26T08:39:22.519Z,17.63
2019-01-26T08:40:31.593Z,17.58
2019-01-26T08:41:40.430Z,17.59
2019-01-26T08:42:49.772Z,17.55
2019-01-26T08:43:58.936Z,17.58
2019-01-26T08:45:08.040Z,17.56
2019-01-26T08:46:17.121Z,17.62
2019-01-26T08:47:25.926Z,17.66
2019-01-26T08:48:36.257Z,17.63
2019-01-26T08:49:45.138Z,17.56
2019-01-26T08:50:54.239Z,17.68
2019-01-26T08:52:03.356Z,17.54
2019-01-26T08:53:12.462Z,17.54
2019-01-26T08:54:21.617Z,17.68
2019-01-26T08:55:30.472Z,17.56
2019-01-26T08:56:39.284Z,17.62
2019-01-26T08:57:48.106Z,17.66
2019-01-26T08:58:56.938Z,17.56
2019-01-26T09:00:06.301Z,17.63
2019-01-26T09:01:15.498Z,17.66
2019-01-26T09:02:30.407Z,17.58
2019-01-26T09:03:39.753Z,17.64
2019-01-26T09:04:49.119Z,17.62
2019-01-26T09:05:58.233Z,17.62
2019-01-26T09:07:07.102Z,17.71
2019-01-26T09:08:15.929Z,17.66
2019-01-26T09:09:24.745Z,17.7
2019-01-26T09:10:33.839Z,17.74
2019-01-26T09:11:42.655Z,17.72
2019-01-26T09:12:51.570Z,17.74
2019-01-26T09:14:00.393Z,17.71
2019-01-26T09:15:09.462Z,17.74
2019-01-26T09:16:18.547Z,17.78
2019-01-26T09:17:27.639Z,17.72
2019-01-26T09:18:43.352Z,17.72
2019-01-26T09:19:52.955Z,17.7
2019-01-26T09:21:02.028Z,17.72
2019-01-26T09:22:10.848Z,17.71
2019-01-26T09:23:20.456Z,17.75
2019-01-26T09:24:30.575Z,17.71
2019-01-26T09:25:39.763Z,17.79
2019-01-26T09:26:48.832Z,17.75
2019-01-26T09:27:57.917Z,17.72
2019-01-26T09:29:06.708Z,17.71
2019-01-26T09:30:15.796Z,17.68
2019-01-26T09:31:25.126Z,17.72
2019-01-26T09:32:34.207Z,17.71
2019-01-26T09:33:43.548Z,17.77
2019-01-26T09:34:52.633Z,17.72
2019-01-26T09:36:02.632Z,17.72
2019-01-26T09:37:11.979Z,17.77
2019-01-26T09:38:21.068Z,17.7
2019-01-26T09:39:30.173Z,17.68
2019-01-26T09:40:39.532Z,17.75
2019-01-26T09:41:49.539Z,17.75
2019-01-26T09:42:58.618Z,17.7
2019-01-26T09:44:07.957Z,17.72
2019-01-26T09:45:16.760Z,17.72
2019-01-26T09:46:26.086Z,17.75
2019-01-26T09:47:35.288Z,17.75
2019-01-26T09:48:50.703Z,17.71
2019-01-26T09:49:59.548Z,17.82
2019-01-26T09:51:09.180Z,17.87
2019-01-26T09:52:18.531Z,17.74
2019-01-26T09:53:27.987Z,17.74
2019-01-26T09:54:37.323Z,17.75
2019-01-26T09:55:46.403Z,17.75
2019-01-26T09:56:55.480Z,17.74
2019-01-26T09:58:04.305Z,17.86
2019-01-26T09:59:13.687Z,17.81
2019-01-26T10:00:22.641Z,17.74
2019-01-26T10:01:31.471Z,17.82
2019-01-26T10:02:40.576Z,17.89
2019-01-26T10:03:49.581Z,17.86
2019-01-26T10:04:58.760Z,17.84
2019-01-26T10:06:07.580Z,17.81
2019-01-26T10:07:16.939Z,17.92
2019-01-26T10:08:26.012Z,17.82
2019-01-26T10:09:35.379Z,17.93
2019-01-26T10:10:44.577Z,17.84
2019-01-26T10:11:53.912Z,17.84
2019-01-26T10:13:02.758Z,17.82
2019-01-26T10:14:11.643Z,17.89
2019-01-26T10:15:20.474Z,17.84
2019-01-26T10:16:29.934Z,17.81
2019-01-26T10:17:45.351Z,17.81
2019-01-26T10:18:58.548Z,17.84
2019-01-26T10:20:07.882Z,17.82
2019-01-26T10:21:17.253Z,17.81
2019-01-26T10:22:27.853Z,17.86
2019-01-26T10:23:36.913Z,17.86
2019-01-26T10:24:45.715Z,17.79
2019-01-26T10:25:55.077Z,17.87
2019-01-26T10:27:04.695Z,17.89
2019-01-26T10:28:13.531Z,17.92
2019-01-26T10:29:22.363Z,17.86
2019-01-26T10:30:31.728Z,17.89
2019-01-26T10:31:40.798Z,17.92
2019-01-26T10:32:51.236Z,17.93
2019-01-26T10:34:00.050Z,17.82
2019-01-26T10:35:09.653Z,17.84
2019-01-26T10:36:18.739Z,17.82
2019-01-26T10:37:28.332Z,17.87
2019-01-26T10:38:37.686Z,17.84
2019-01-26T10:39:46.631Z,17.95
2019-01-26T10:40:56.294Z,17.89
2019-01-26T10:42:05.385Z,17.84
2019-01-26T10:43:14.481Z,17.81
2019-01-26T10:44:23.590Z,17.87
2019-01-26T10:45:32.523Z,17.89
2019-01-26T10:46:41.602Z,17.84
2019-01-26T10:47:50.667Z,17.82
2019-01-26T10:49:05.108Z,17.86
2019-01-26T10:50:13.946Z,17.86
2019-01-26T10:51:22.838Z,17.84
2019-01-26T10:52:31.937Z,17.92
2019-01-26T10:53:41.304Z,17.82
2019-01-26T10:54:50.128Z,17.86
2019-01-26T10:55:58.926Z,17.89
2019-01-26T10:57:08.406Z,17.87
2019-01-26T10:58:17.496Z,17.89
2019-01-26T10:59:26.861Z,17.92
2019-01-26T11:00:35.682Z,17.89
2019-01-26T11:01:44.777Z,17.84
2019-01-26T11:02:53.592Z,17.93
2019-01-26T11:04:02.392Z,17.92
2019-01-26T11:05:11.474Z,17.95
2019-01-26T11:06:20.330Z,17.93
2019-01-26T11:07:29.420Z,17.95
2019-01-26T11:08:38.340Z,17.96
2019-01-26T11:09:47.733Z,18.05
2019-01-26T11:10:56.819Z,17.99
2019-01-26T11:12:05.920Z,18
2019-01-26T11:13:15.008Z,18.07
2019-01-26T11:14:24.882Z,18.05
2019-01-26T11:15:33.965Z,18.11
2019-01-26T11:16:43.293Z,18.08
2019-01-26T11:17:52.398Z,18.11
2019-01-26T11:19:07.796Z,18.07
2019-01-26T11:20:16.873Z,18.14
2019-01-26T11:21:27.875Z,18.12
2019-01-26T11:22:37.020Z,18.15
2019-01-26T11:23:46.140Z,18.2
2019-01-26T11:24:54.988Z,18.14
2019-01-26T11:26:03.905Z,18.07
2019-01-26T11:27:12.721Z,18.08
2019-01-26T11:28:21.856Z,18.1
2019-01-26T11:29:30.657Z,18.07
2019-01-26T11:30:39.481Z,18.08
2019-01-26T11:31:49.179Z,18.1
2019-01-26T11:32:58.501Z,18.07
2019-01-26T11:34:07.321Z,18.02
2019-01-26T11:35:16.146Z,18.05
2019-01-26T11:36:25.058Z,18.05
2019-01-26T11:37:33.868Z,18.07
2019-01-26T11:38:42.721Z,18.05
2019-01-26T11:39:51.537Z,18.03
2019-01-26T11:41:00.643Z,18.07
2019-01-26T11:42:10.574Z,18.03
2019-01-26T11:43:19.691Z,18.1
2019-01-26T11:44:28.771Z,18.02
2019-01-26T11:45:37.602Z,18
2019-01-26T11:46:46.474Z,18.03
2019-01-26T11:47:55.560Z,18.02
2019-01-26T11:49:04.698Z,18.03
2019-01-26T11:50:20.700Z,18.05
2019-01-26T11:51:29.800Z,18.05
2019-01-26T11:52:38.626Z,18.14
2019-01-26T11:53:47.432Z,18.1
2019-01-26T11:54:56.365Z,18.07
2019-01-26T11:56:05.448Z,18.02
2019-01-26T11:57:14.843Z,18.03
2019-01-26T11:58:24.210Z,18.05
2019-01-26T11:59:33.037Z,18.05
2019-01-26T12:00:42.850Z,18.05
2019-01-26T12:01:51.952Z,18.05
2019-01-26T12:03:01.295Z,18.02
2019-01-26T12:04:10.666Z,18.1
2019-01-26T12:05:19.778Z,18.05
2019-01-26T12:06:28.606Z,18.02
2019-01-26T12:07:37.460Z,18.05
2019-01-26T12:08:46.283Z,18.03
2019-01-26T12:09:55.623Z,17.99
2019-01-26T12:11:04.728Z,18
2019-01-26T12:12:13.842Z,18.02
2019-01-26T12:13:22.938Z,18.08
2019-01-26T12:14:32.054Z,18.02
2019-01-26T12:15:41.132Z,18.02
2019-01-26T12:16:49.947Z,17.97
2019-01-26T12:17:58.832Z,18.03
2019-01-26T12:19:08.174Z,18.05
2019-01-26T12:20:17.055Z,17.96
2019-01-26T12:21:25.983Z,18.05
2019-01-26T12:22:34.793Z,18.03
2019-01-26T12:23:43.993Z,17.99
2019-01-26T12:24:53.334Z,17.99
2019-01-26T12:26:02.698Z,18.08
2019-01-26T12:27:11.817Z,18
2019-01-26T12:28:20.618Z,18.03
2019-01-26T12:29:29.545Z,18.07
2019-01-26T12:30:38.425Z,18.08
2019-01-26T12:31:47.510Z,18.03
2019-01-26T12:32:56.625Z,18.07
2019-01-26T12:34:05.958Z,18.05
2019-01-26T12:35:14.766Z,18.08
2019-01-26T12:36:23.599Z,18.07
2019-01-26T12:37:32.737Z,18.07
2019-01-26T12:38:41.559Z,18.11
2019-01-26T12:39:50.627Z,18.1
2019-01-26T12:41:00.091Z,18.07
2019-01-26T12:42:08.919Z,18.1
2019-01-26T12:43:17.998Z,18.11
2019-01-26T12:44:27.089Z,18.05
2019-01-26T12:45:36.166Z,18.03
2019-01-26T12:46:45.034Z,18.07
2019-01-26T12:47:53.844Z,18.11
2019-01-26T12:49:03.177Z,18.1
2019-01-26T12:50:11.991Z,18.08
2019-01-26T12:51:21.635Z,18.11
2019-01-26T12:52:31.134Z,18.07
2019-01-26T12:53:39.988Z,17.92
2019-01-26T12:54:48.810Z,17.97
2019-01-26T12:55:57.623Z,17.84
2019-01-26T12:57:06.471Z,18.05
2019-01-26T12:58:15.896Z,18.03
2019-01-26T12:59:24.722Z,17.93
2019-01-26T13:00:33.792Z,18
2019-01-26T13:01:43.135Z,17.97
2019-01-26T13:02:53.804Z,18.02
2019-01-26T13:04:02.729Z,17.99
2019-01-26T13:05:12.358Z,17.99
2019-01-26T13:06:21.703Z,17.99
2019-01-26T13:07:30.794Z,17.99
2019-01-26T13:08:39.620Z,17.96
2019-01-26T13:09:49.984Z,17.99
2019-01-26T13:10:58.801Z,18.05
2019-01-26T13:12:07.624Z,17.99
2019-01-26T13:13:16.689Z,17.99
2019-01-26T13:14:25.502Z,18.05
2019-01-26T13:15:34.412Z,18.08
2019-01-26T13:16:43.495Z,17.96
2019-01-26T13:17:52.293Z,17.96
2019-01-26T13:19:01.113Z,18.03
2019-01-26T13:20:09.917Z,17.97
2019-01-26T13:21:18.821Z,18.07
2019-01-26T13:22:27.992Z,18.02
2019-01-26T13:23:37.361Z,18.14
2019-01-26T13:24:46.200Z,18.08
2019-01-26T13:25:55.280Z,17.99
2019-01-26T13:27:04.098Z,17.97
2019-01-26T13:28:13.178Z,18.02
2019-01-26T13:29:22.266Z,17.9
2019-01-26T13:30:31.084Z,18.02
2019-01-26T13:31:39.913Z,18.05
2019-01-26T13:32:49.103Z,18
2019-01-26T13:33:58.182Z,18.02
2019-01-26T13:35:07.282Z,18.08
2019-01-26T13:36:16.089Z,18.08
2019-01-26T13:37:24.896Z,18.07
2019-01-26T13:38:34.254Z,18.07
2019-01-26T13:39:43.109Z,18.12
2019-01-26T13:40:51.933Z,18.1
2019-01-26T13:42:01.034Z,18.11
2019-01-26T13:43:10.105Z,18.14
2019-01-26T13:44:19.594Z,18.18
2019-01-26T13:45:29.228Z,18.15
2019-01-26T13:46:38.022Z,18.18
2019-01-26T13:47:47.231Z,18.23
2019-01-26T13:48:56.158Z,18.2
2019-01-26T13:50:05.081Z,18.21
2019-01-26T13:51:17.740Z,18.15
2019-01-26T13:52:26.914Z,18.21
2019-01-26T13:53:35.744Z,18.17
2019-01-26T13:54:44.871Z,18.21
2019-01-26T13:55:53.756Z,18.21
2019-01-26T13:57:02.855Z,18.18
2019-01-26T13:58:12.011Z,18.2
2019-01-26T13:59:21.110Z,18.21
2019-01-26T14:00:30.224Z,18.17
2019-01-26T14:01:39.732Z,18.12
2019-01-26T14:02:48.863Z,18.12
2019-01-26T14:03:57.688Z,18.08
2019-01-26T14:05:06.611Z,18.2
2019-01-26T14:06:15.695Z,18.2
2019-01-26T14:07:24.958Z,18.15
2019-01-26T14:08:33.936Z,18.15
2019-01-26T14:09:43.300Z,18.15
2019-01-26T14:10:52.134Z,18.17
2019-01-26T14:12:01.547Z,18.14
2019-01-26T14:13:11.283Z,18.2
2019-01-26T14:14:20.116Z,18.15
2019-01-26T14:15:29.264Z,18.14
2019-01-26T14:16:38.667Z,18.14
2019-01-26T14:17:47.547Z,18.12
2019-01-26T14:18:56.865Z,18.11
2019-01-26T14:20:06.132Z,18.15
2019-01-26T14:21:15.490Z,18.17
2019-01-26T14:22:24.375Z,18.18
2019-01-26T14:23:33.196Z,18.14
2019-01-26T14:24:42.422Z,18.21
2019-01-26T14:25:51.265Z,18.14
2019-01-26T14:27:00.622Z,18.18
2019-01-26T14:28:09.974Z,18.15
2019-01-26T14:29:18.804Z,18.21
2019-01-26T14:30:27.713Z,18.15
2019-01-26T14:31:37.323Z,18.18
2019-01-26T14:32:52.222Z,18.2
2019-01-26T14:34:02.521Z,18.17
2019-01-26T14:35:11.864Z,18.21
2019-01-26T14:36:21.133Z,18.15
2019-01-26T14:37:30.013Z,18.18
2019-01-26T14:38:39.142Z,18.15
2019-01-26T14:39:48.534Z,18.12
2019-01-26T14:40:57.397Z,18.18
2019-01-26T14:42:06.451Z,18.21
2019-01-26T14:43:15.609Z,18.17
2019-01-26T14:44:24.476Z,18.2
2019-01-26T14:45:33.698Z,18.21
2019-01-26T14:46:42.841Z,18.2
2019-01-26T14:47:51.803Z,18.18
2019-01-26T14:49:00.926Z,18.23
2019-01-26T14:50:09.760Z,18.21
2019-01-26T14:51:18.695Z,18.21
2019-01-26T14:52:27.796Z,18.21
2019-01-26T14:53:36.969Z,18.18
2019-01-26T14:54:52.257Z,18.18